createdAt,value
2022-11-07T00:00:01.038Z,97698.47
2022-11-07T00:02:27.588Z,97691.56
2022-11-07T00:04:54.105Z,97695.09
2022-11-07T00:07:20.559Z,97694.47
2022-11-07T00:09:47.083Z,97705.88
2022-11-07T00:12:13.515Z,97712.47
2022-11-07T00:14:39.985Z,97712.19
2022-11-07T00:17:07.592Z,97713.25
2022-11-07T00:19:34.015Z,97697.56
2022-11-07T00:22:00.594Z,97699.50
2022-11-07T00:24:27.099Z,97699.22
2022-11-07T00:26:53.828Z,97701.66
2022-11-07T00:29:20.522Z,97704.44
2022-11-07T00:31:47.519Z,97707.22
2022-11-07T00:34:14.044Z,97710.38
2022-11-07T00:36:40.721Z,97716.03
2022-11-07T00:39:07.233Z,97720.53
2022-11-07T00:41:33.898Z,97712.81
2022-11-07T00:44:00.313Z,97710.38
2022-11-07T00:46:26.835Z,97710.13
2022-11-07T00:48:53.293Z,97710.38
2022-11-07T00:51:21.302Z,97700.72
2022-11-07T00:53:47.785Z,97707.50
2022-11-07T00:56:15.686Z,97710.00
2022-11-07T00:58:42.823Z,97721.78
2022-11-07T01:01:10.523Z,97723.97
2022-11-07T01:03:55.904Z,97726.84
2022-11-07T01:06:22.549Z,97717.97
2022-11-07T01:08:49.140Z,97718.31
2022-11-07T01:11:15.680Z,97712.63
2022-11-07T01:13:42.172Z,97713.97
2022-11-07T01:16:09.705Z,97713.31
2022-11-07T01:18:36.180Z,97719.97
2022-11-07T01:21:06.291Z,97706.22
2022-11-07T01:23:33.086Z,97706.22
2022-11-07T01:26:04.350Z,97702.66
2022-11-07T01:28:30.835Z,97708.25
2022-11-07T01:30:57.246Z,97709.38
2022-11-07T01:33:23.760Z,97700.94
2022-11-07T01:35:50.237Z,97700.94
2022-11-07T01:38:16.658Z,97710.94
2022-11-07T01:41:02.344Z,97699.22
2022-11-07T01:43:47.678Z,97686.16
2022-11-07T01:46:14.588Z,97694.44
2022-11-07T01:48:43.553Z,97695.69
2022-11-07T01:51:11.411Z,97697.13
2022-11-07T01:53:38.097Z,97701.00
2022-11-07T01:56:08.104Z,97705.88
2022-11-07T01:58:34.584Z,97698.88
2022-11-07T02:01:01.493Z,97697.88
2022-11-07T02:03:28.069Z,97698.88
2022-11-07T02:05:57.401Z,97700.06
2022-11-07T02:08:24.457Z,97696.44
2022-11-07T02:10:51.749Z,97688.78
2022-11-07T02:13:21.309Z,97693.41
2022-11-07T02:15:47.796Z,97700.53
2022-11-07T02:18:14.292Z,97695.78
2022-11-07T02:20:40.950Z,97705.88
2022-11-07T02:23:10.819Z,97713.91
2022-11-07T02:25:37.396Z,97709.03
2022-11-07T02:28:05.778Z,97702.63
2022-11-07T02:30:34.532Z,97703.75
2022-11-07T02:33:01.647Z,97704.00
2022-11-07T02:35:34.151Z,97696.03
2022-11-07T02:38:01.000Z,97699.38
2022-11-07T02:40:29.871Z,97711.06
2022-11-07T02:42:56.896Z,97713.47
2022-11-07T02:45:44.280Z,97694.50
2022-11-07T02:48:10.748Z,97689.16
2022-11-07T02:50:37.358Z,97702.41
2022-11-07T02:53:03.836Z,97708.13
2022-11-07T02:55:30.341Z,97715.63
2022-11-07T02:57:56.864Z,97720.25
2022-11-07T03:00:23.381Z,97721.56
2022-11-07T03:02:50.110Z,97713.69
2022-11-07T03:05:17.799Z,97711.53
2022-11-07T03:07:45.101Z,97706.44
2022-11-07T03:10:12.029Z,97714.91
2022-11-07T03:12:38.521Z,97703.75
2022-11-07T03:15:06.259Z,97710.53
2022-11-07T03:17:33.032Z,97713.94
2022-11-07T03:19:59.544Z,97721.00
2022-11-07T03:22:26.476Z,97714.19
2022-11-07T03:24:52.913Z,97724.13
2022-11-07T03:27:19.509Z,97722.91
2022-11-07T03:29:45.960Z,97723.38
2022-11-07T03:32:12.435Z,97726.34
2022-11-07T03:34:38.952Z,97722.22
2022-11-07T03:37:05.411Z,97738.59
2022-11-07T03:39:31.862Z,97740.88
2022-11-07T03:41:58.299Z,97749.56
2022-11-07T03:44:24.781Z,97746.28
2022-11-07T03:46:51.321Z,97749.56
2022-11-07T03:49:17.805Z,97751.09
2022-11-07T03:51:44.312Z,97760.94
2022-11-07T03:54:11.112Z,97756.34
2022-11-07T03:56:37.556Z,97753.25
2022-11-07T03:59:03.997Z,97760.06
2022-11-07T04:01:30.575Z,97773.97
2022-11-07T04:03:57.098Z,97776.38
2022-11-07T04:06:23.614Z,97774.47
2022-11-07T04:08:50.213Z,97782.72
2022-11-07T04:11:35.070Z,97791.94
2022-11-07T04:14:20.210Z,97778.91
2022-11-07T04:17:05.112Z,97791.53
2022-11-07T04:19:31.579Z,97789.50
2022-11-07T04:21:57.993Z,97781.75
2022-11-07T04:24:24.421Z,97796.81
2022-11-07T04:27:09.583Z,97789.16
2022-11-07T04:29:36.042Z,97799.72
2022-11-07T04:32:02.486Z,97793.41
2022-11-07T04:34:28.958Z,97800.56
2022-11-07T04:36:55.413Z,97799.91
2022-11-07T04:39:21.884Z,97803.94
2022-11-07T04:41:48.416Z,97796.00
2022-11-07T04:44:14.919Z,97786.69
2022-11-07T04:46:41.371Z,97799.41
2022-11-07T04:49:07.788Z,97800.44
2022-11-07T04:51:34.220Z,97797.00
2022-11-07T04:54:00.627Z,97806.06
2022-11-07T04:56:30.554Z,97810.91
2022-11-07T04:59:00.660Z,97816.63
2022-11-07T05:01:27.133Z,97815.88
2022-11-07T05:03:53.557Z,97808.88
2022-11-07T05:06:20.569Z,97813.75
2022-11-07T05:08:47.011Z,97816.44
2022-11-07T05:11:13.488Z,97818.09
2022-11-07T05:13:39.909Z,97822.63
2022-11-07T05:16:07.022Z,97828.41
2022-11-07T05:18:33.553Z,97819.13
2022-11-07T05:21:00.043Z,97835.19
2022-11-07T05:23:28.437Z,97841.91
2022-11-07T05:25:54.891Z,97841.28
2022-11-07T05:28:31.273Z,97843.44
2022-11-07T05:31:03.757Z,97838.69
2022-11-07T05:33:30.535Z,97841.69
2022-11-07T05:35:56.949Z,97844.47
2022-11-07T05:38:23.389Z,97862.34
2022-11-07T05:40:49.813Z,97857.13
2022-11-07T05:43:16.692Z,97859.44
2022-11-07T05:45:43.414Z,97860.44
2022-11-07T05:48:11.446Z,97865.53
2022-11-07T05:50:38.303Z,97863.53
2022-11-07T05:53:05.337Z,97871.09
2022-11-07T05:55:31.942Z,97865.38
2022-11-07T05:57:59.857Z,97879.13
2022-11-07T06:00:30.757Z,97881.44
2022-11-07T06:03:00.304Z,97882.91
2022-11-07T06:05:26.902Z,97870.50
2022-11-07T06:07:53.388Z,97877.06
2022-11-07T06:10:20.165Z,97878.03
2022-11-07T06:12:46.657Z,97888.00
2022-11-07T06:15:13.166Z,97895.31
2022-11-07T06:17:39.641Z,97898.97
2022-11-07T06:20:06.360Z,97903.94
2022-11-07T06:22:32.803Z,97909.19
2022-11-07T06:24:59.287Z,97918.28
2022-11-07T06:27:25.729Z,97920.00
2022-11-07T06:29:52.170Z,97913.56
2022-11-07T06:32:18.644Z,97915.25
2022-11-07T06:34:45.073Z,97922.31
2022-11-07T06:37:11.565Z,97926.47
2022-11-07T06:39:38.024Z,97925.09
2022-11-07T06:42:04.545Z,97926.09
2022-11-07T06:44:31.057Z,97923.06
2022-11-07T06:46:57.513Z,97931.69
2022-11-07T06:49:23.992Z,97940.00
2022-11-07T06:51:50.428Z,97936.16
2022-11-07T06:54:16.967Z,97931.31
2022-11-07T06:56:43.437Z,97949.72
2022-11-07T06:59:10.029Z,97942.50
2022-11-07T07:01:36.639Z,97951.03
2022-11-07T07:04:03.212Z,97948.09
2022-11-07T07:06:29.672Z,97949.56
2022-11-07T07:08:56.173Z,97947.88
2022-11-07T07:11:22.613Z,97943.72
2022-11-07T07:13:49.249Z,97950.56
2022-11-07T07:16:16.233Z,97946.53
2022-11-07T07:18:42.734Z,97949.22
2022-11-07T07:21:10.716Z,97951.91
2022-11-07T07:23:38.565Z,97957.84
2022-11-07T07:26:06.315Z,97960.31
2022-11-07T07:28:33.057Z,97967.09
2022-11-07T07:31:14.633Z,97954.84
2022-11-07T07:33:41.975Z,97958.16
2022-11-07T07:36:09.097Z,97952.53
2022-11-07T07:38:35.890Z,97946.06
2022-11-07T07:41:02.790Z,97942.97
2022-11-07T07:43:29.337Z,97944.06
2022-11-07T07:46:03.172Z,97940.59
2022-11-07T07:48:30.120Z,97949.78
2022-11-07T07:50:56.632Z,97960.50
2022-11-07T07:53:23.176Z,97963.28
2022-11-07T07:55:49.913Z,97958.19
2022-11-07T07:58:16.426Z,97961.25
2022-11-07T08:00:42.978Z,97954.06
2022-11-07T08:03:12.759Z,97949.19
2022-11-07T08:05:39.661Z,97948.97
2022-11-07T08:08:07.228Z,97953.00
2022-11-07T08:10:42.749Z,97969.56
2022-11-07T08:13:09.579Z,97958.63
2022-11-07T08:15:36.041Z,97959.13
2022-11-07T08:18:02.927Z,97951.03
2022-11-07T08:20:29.464Z,97957.56
2022-11-07T08:23:03.706Z,97950.56
2022-11-07T08:25:30.401Z,97958.59
2022-11-07T08:27:56.836Z,97960.22
2022-11-07T08:30:23.253Z,97957.19
2022-11-07T08:32:49.757Z,97957.72
2022-11-07T08:35:16.695Z,97963.31
2022-11-07T08:37:43.257Z,97963.00
2022-11-07T08:40:10.268Z,97967.94
2022-11-07T08:42:36.743Z,97976.53
2022-11-07T08:45:03.344Z,97970.22
2022-11-07T08:47:29.824Z,97967.38
2022-11-07T08:49:56.299Z,97962.00
2022-11-07T08:52:22.709Z,97964.25
2022-11-07T08:54:49.172Z,97957.03
2022-11-07T08:57:15.640Z,97963.16
2022-11-07T08:59:42.067Z,97966.34
2022-11-07T09:04:57.324Z,97965.66
2022-11-07T09:07:23.805Z,97966.13
2022-11-07T09:09:50.246Z,97972.31
2022-11-07T09:12:16.760Z,97977.91
2022-11-07T09:14:43.180Z,97983.59
2022-11-07T09:17:09.656Z,97983.25
2022-11-07T09:19:36.163Z,97974.50
2022-11-07T09:22:02.723Z,97966.63
2022-11-07T09:24:29.170Z,97969.59
2022-11-07T09:26:55.638Z,97962.03
2022-11-07T09:29:22.229Z,97974.25
2022-11-07T09:31:48.706Z,97965.34
2022-11-07T09:34:15.168Z,97973.31
2022-11-07T09:36:41.645Z,97978.78
2022-11-07T09:39:08.154Z,97979.41
2022-11-07T09:41:50.195Z,97976.22
2022-11-07T09:44:37.535Z,97971.28
2022-11-07T09:47:17.881Z,97957.50
2022-11-07T09:49:46.337Z,97967.81
2022-11-07T09:52:19.047Z,97964.72
2022-11-07T09:54:51.955Z,97957.69
2022-11-07T09:57:19.721Z,97955.28
2022-11-07T09:59:50.022Z,97953.00
2022-11-07T10:02:18.654Z,97957.47
2022-11-07T10:04:45.995Z,97954.31
2022-11-07T10:07:27.549Z,97944.59
2022-11-07T10:10:26.612Z,97949.84
2022-11-07T10:12:53.098Z,97943.75
2022-11-07T10:15:27.015Z,97945.31
2022-11-07T10:18:07.268Z,97928.88
2022-11-07T10:20:33.727Z,97928.09
2022-11-07T10:23:17.848Z,97931.59
2022-11-07T10:25:50.414Z,97924.81
2022-11-07T10:28:17.905Z,97928.88
2022-11-07T10:30:46.211Z,97916.00
2022-11-07T10:33:31.408Z,97915.63
2022-11-07T10:36:02.226Z,97921.00
2022-11-07T10:38:29.650Z,97915.94
2022-11-07T10:40:56.173Z,97916.19
2022-11-07T10:43:28.517Z,97918.41
2022-11-07T10:45:55.634Z,97907.56
2022-11-07T10:48:22.145Z,97909.91
2022-11-07T10:50:52.900Z,97899.97
2022-11-07T10:53:23.950Z,97904.94
2022-11-07T10:55:51.486Z,97907.00
2022-11-07T10:58:28.879Z,97906.00
2022-11-07T11:01:08.675Z,97903.56
2022-11-07T11:03:46.134Z,97893.94
2022-11-07T11:06:18.790Z,97898.59
2022-11-07T11:08:46.348Z,97890.97
2022-11-07T11:11:14.180Z,97892.22
2022-11-07T11:13:40.627Z,97891.16
2022-11-07T11:16:27.360Z,97886.00
2022-11-07T11:18:55.813Z,97883.25
2022-11-07T11:21:22.761Z,97880.06
2022-11-07T11:23:49.769Z,97872.13
2022-11-07T11:26:16.454Z,97874.75
2022-11-07T11:28:45.981Z,97868.22
2022-11-07T11:31:21.633Z,97865.56
2022-11-07T11:33:49.335Z,97865.56
2022-11-07T11:36:19.353Z,97860.19
2022-11-07T11:38:53.177Z,97854.03
2022-11-07T11:41:32.128Z,97858.88
2022-11-07T11:43:58.858Z,97854.88
2022-11-07T11:46:28.722Z,97859.50
2022-11-07T11:49:09.413Z,97853.09
2022-11-07T11:51:40.762Z,97847.69
2022-11-07T11:54:12.207Z,97854.03
2022-11-07T11:56:45.169Z,97858.81
2022-11-07T11:59:30.380Z,97854.44
2022-11-07T12:02:05.251Z,97854.03
2022-11-07T12:04:38.313Z,97858.25
2022-11-07T12:07:15.774Z,97847.91
2022-11-07T12:09:52.045Z,97849.63
2022-11-07T12:12:29.825Z,97857.75
2022-11-07T12:14:57.991Z,97849.41
2022-11-07T12:17:30.723Z,97846.88
2022-11-07T12:20:01.880Z,97852.28
2022-11-07T12:22:28.318Z,97849.81
2022-11-07T12:25:12.532Z,97848.94
2022-11-07T12:27:46.807Z,97842.19
2022-11-07T12:30:31.460Z,97839.75
2022-11-07T12:33:07.030Z,97833.38
2022-11-07T12:35:36.752Z,97838.25
2022-11-07T12:38:21.958Z,97846.22
2022-11-07T12:40:48.399Z,97837.56
2022-11-07T12:43:18.141Z,97840.78
2022-11-07T12:45:57.398Z,97840.34
2022-11-07T12:48:26.568Z,97835.03
2022-11-07T12:50:59.283Z,97839.28
2022-11-07T12:53:46.086Z,97834.22
2022-11-07T12:56:18.086Z,97830.41
2022-11-07T12:58:46.125Z,97831.88
2022-11-07T13:01:18.819Z,97836.34
2022-11-07T13:03:45.352Z,97841.84
2022-11-07T13:06:38.495Z,97844.78
2022-11-07T13:09:07.795Z,97832.50
2022-11-07T13:11:42.150Z,97841.34
2022-11-07T13:14:18.325Z,97843.88
2022-11-07T13:17:11.029Z,97838.06
2022-11-07T13:19:40.576Z,97841.19
2022-11-07T13:22:19.231Z,97840.13
2022-11-07T13:25:08.365Z,97834.03
2022-11-07T13:27:38.132Z,97841.38
2022-11-07T13:30:13.766Z,97838.91
2022-11-07T13:32:44.618Z,97841.81
2022-11-07T13:35:25.394Z,97842.69
2022-11-07T13:37:57.925Z,97832.13
2022-11-07T13:40:33.335Z,97832.59
2022-11-07T13:43:03.322Z,97832.16
2022-11-07T13:45:38.053Z,97831.75
2022-11-07T13:48:05.360Z,97827.69
2022-11-07T13:50:43.748Z,97839.44
2022-11-07T13:53:17.440Z,97828.75
2022-11-07T13:55:46.220Z,97831.00
2022-11-07T13:58:17.163Z,97828.53
2022-11-07T14:00:43.726Z,97818.69
2022-11-07T14:03:42.486Z,97828.06
2022-11-07T14:06:12.887Z,97837.97
2022-11-07T14:08:44.346Z,97831.81
2022-11-07T14:11:21.647Z,97823.16
2022-11-07T14:13:50.236Z,97828.19
2022-11-07T14:16:21.587Z,97833.16
2022-11-07T14:18:51.610Z,97827.63
2022-11-07T14:21:22.872Z,97825.31
2022-11-07T14:23:49.680Z,97829.03
2022-11-07T14:26:18.695Z,97834.97
2022-11-07T14:28:45.433Z,97826.13
2022-11-07T14:31:20.574Z,97828.81
2022-11-07T14:33:48.202Z,97824.47
2022-11-07T14:36:14.650Z,97832.94
2022-11-07T14:38:45.765Z,97830.59
2022-11-07T14:41:12.944Z,97841.56
2022-11-07T14:43:39.665Z,97837.38
2022-11-07T14:46:12.806Z,97842.41
2022-11-07T14:48:40.908Z,97838.84
2022-11-07T14:51:07.394Z,97840.50
2022-11-07T14:53:42.365Z,97841.69
2022-11-07T14:56:12.276Z,97837.00
2022-11-07T14:58:39.073Z,97848.19
2022-11-07T15:01:08.623Z,97846.44
2022-11-07T15:03:37.749Z,97854.50
2022-11-07T15:06:04.295Z,97850.78
2022-11-07T15:08:32.146Z,97852.78
2022-11-07T15:11:01.673Z,97857.88
2022-11-07T15:13:30.041Z,97862.97
2022-11-07T15:16:01.095Z,97857.53
2022-11-07T15:18:28.428Z,97860.38
2022-11-07T15:20:59.066Z,97857.22
2022-11-07T15:23:28.555Z,97858.19
2022-11-07T15:25:56.746Z,97867.34
2022-11-07T15:28:23.247Z,97865.97
2022-11-07T15:30:50.411Z,97861.81
2022-11-07T15:33:17.641Z,97872.56
2022-11-07T15:35:45.381Z,97866.97
2022-11-07T15:38:16.482Z,97866.09
2022-11-07T15:40:43.300Z,97869.94
2022-11-07T15:43:10.000Z,97864.47
2022-11-07T15:45:36.490Z,97878.66
2022-11-07T15:48:04.692Z,97871.06
2022-11-07T15:50:32.103Z,97873.41
2022-11-07T15:52:58.521Z,97874.56
2022-11-07T15:55:25.271Z,97867.72
2022-11-07T15:57:53.182Z,97871.63
2022-11-07T16:00:21.501Z,97877.25
2022-11-07T16:02:48.119Z,97880.59
2022-11-07T16:05:15.216Z,97886.22
2022-11-07T16:07:42.312Z,97879.59
2022-11-07T16:10:20.550Z,97874.03
2022-11-07T16:12:47.399Z,97883.72
2022-11-07T16:15:14.295Z,97884.72
2022-11-07T16:17:41.191Z,97893.44
2022-11-07T16:20:13.385Z,97885.72
2022-11-07T16:22:39.860Z,97894.81
2022-11-07T16:25:14.049Z,97898.63
2022-11-07T16:27:48.697Z,97904.06
2022-11-07T16:30:16.001Z,97909.84
2022-11-07T16:32:42.496Z,97917.16
2022-11-07T16:35:09.098Z,97917.53
2022-11-07T16:37:35.621Z,97918.53
2022-11-07T16:40:02.198Z,97921.56
2022-11-07T16:42:28.819Z,97936.94
2022-11-07T16:44:55.368Z,97933.59
2022-11-07T16:47:23.833Z,97939.53
2022-11-07T16:49:54.916Z,97942.94
2022-11-07T16:52:25.198Z,97945.75
2022-11-07T16:54:51.684Z,97943.47
2022-11-07T16:57:18.565Z,97947.41
2022-11-07T16:59:45.640Z,97943.00
2022-11-07T17:02:20.166Z,97939.75
2022-11-07T17:04:47.642Z,97938.06
2022-11-07T17:07:15.313Z,97941.59
2022-11-07T17:09:41.799Z,97929.56
2022-11-07T17:12:19.915Z,97929.41
2022-11-07T17:14:46.385Z,97934.63
2022-11-07T17:17:13.630Z,97938.19
2022-11-07T17:19:40.442Z,97937.06
2022-11-07T17:22:07.276Z,97934.94
2022-11-07T17:24:33.770Z,97936.75
2022-11-07T17:27:00.418Z,97934.66
2022-11-07T17:29:26.915Z,97932.22
2022-11-07T17:31:53.717Z,97929.13
2022-11-07T17:34:20.447Z,97927.13
2022-11-07T17:36:48.993Z,97932.22
2022-11-07T17:39:17.394Z,97937.63
2022-11-07T17:41:44.902Z,97942.13
2022-11-07T17:44:11.729Z,97941.88
2022-11-07T17:46:45.794Z,97942.44
2022-11-07T17:49:12.998Z,97947.25
2022-11-07T17:51:40.748Z,97940.88
2022-11-07T17:54:07.818Z,97935.34
2022-11-07T17:56:34.518Z,97943.72
2022-11-07T17:59:03.081Z,97950.22
2022-11-07T18:01:37.412Z,97942.13
2022-11-07T18:04:04.837Z,97946.41
2022-11-07T18:06:34.283Z,97941.69
2022-11-07T18:09:01.055Z,97946.66
2022-11-07T18:11:29.278Z,97948.38
2022-11-07T18:13:56.682Z,97950.06
2022-11-07T18:16:25.096Z,97947.75
2022-11-07T18:18:51.860Z,97954.53
2022-11-07T18:21:18.387Z,97947.50
2022-11-07T18:23:45.837Z,97948.91
2022-11-07T18:26:16.579Z,97945.75
2022-11-07T18:28:43.620Z,97944.91
2022-11-07T18:31:12.072Z,97944.88
2022-11-07T18:33:39.114Z,97939.22
2022-11-07T18:36:06.744Z,97945.81
2022-11-07T18:38:33.214Z,97933.53
2022-11-07T18:41:19.887Z,97942.00
2022-11-07T18:43:46.693Z,97939.94
2022-11-07T18:46:17.473Z,97939.50
2022-11-07T18:48:43.934Z,97943.38
2022-11-07T18:51:24.135Z,97941.56
2022-11-07T18:53:51.495Z,97931.59
2022-11-07T18:56:18.498Z,97933.84
2022-11-07T18:58:45.021Z,97941.47
2022-11-07T19:01:12.815Z,97945.03
2022-11-07T19:03:39.685Z,97947.28
2022-11-07T19:06:06.821Z,97948.41
2022-11-07T19:08:34.440Z,97952.56
2022-11-07T19:11:02.225Z,97946.88
2022-11-07T19:13:28.758Z,97947.81
2022-11-07T19:15:55.270Z,97948.09
2022-11-07T19:18:22.361Z,97951.00
2022-11-07T19:20:49.008Z,97954.03
2022-11-07T19:23:15.882Z,97954.34
2022-11-07T19:25:42.889Z,97956.59
2022-11-07T19:28:09.862Z,97951.00
2022-11-07T19:30:36.422Z,97958.31
2022-11-07T19:33:03.472Z,97946.66
2022-11-07T19:35:30.982Z,97948.34
2022-11-07T19:37:57.882Z,97958.31
2022-11-07T19:40:24.562Z,97958.44
2022-11-07T19:42:51.642Z,97959.75
2022-11-07T19:45:18.712Z,97974.63
2022-11-07T19:47:45.633Z,97978.69
2022-11-07T19:50:12.430Z,97980.78
2022-11-07T19:52:38.959Z,97976.81
2022-11-07T19:55:05.620Z,97973.56
2022-11-07T19:57:32.100Z,97974.41
2022-11-07T19:59:58.592Z,97980.06
2022-11-07T20:02:34.460Z,97983.22
2022-11-07T20:05:03.017Z,97982.00
2022-11-07T20:07:29.491Z,97989.13
2022-11-07T20:09:56.790Z,97989.13
2022-11-07T20:12:23.209Z,97990.44
2022-11-07T20:14:49.786Z,97992.09
2022-11-07T20:17:16.252Z,97988.19
2022-11-07T20:19:42.702Z,97978.91
2022-11-07T20:22:12.094Z,97981.59
2022-11-07T20:24:38.548Z,97988.69
2022-11-07T20:27:05.152Z,97995.00
2022-11-07T20:29:31.752Z,97988.88
2022-11-07T20:31:58.308Z,97994.25
2022-11-07T20:34:24.817Z,97993.25
2022-11-07T20:36:53.843Z,97990.25
2022-11-07T20:39:20.399Z,97997.81
2022-11-07T20:41:47.294Z,97998.16
2022-11-07T20:44:14.973Z,97994.75
2022-11-07T20:46:43.786Z,97995.50
2022-11-07T20:49:15.119Z,97996.78
2022-11-07T20:51:41.749Z,97993.78
2022-11-07T20:54:11.246Z,97997.25
2022-11-07T20:56:39.157Z,97995.31
2022-11-07T20:59:05.827Z,97989.00
2022-11-07T21:01:35.796Z,97991.91
2022-11-07T21:04:03.943Z,97990.31
2022-11-07T21:06:30.672Z,97984.38
2022-11-07T21:08:57.175Z,97984.38
2022-11-07T21:11:24.942Z,97989.22
2022-11-07T21:13:53.357Z,97987.28
2022-11-07T21:16:20.931Z,97988.28
2022-11-07T21:18:47.729Z,97986.31
2022-11-07T21:21:16.486Z,97984.59
2022-11-07T21:23:43.215Z,97985.47
2022-11-07T21:26:11.390Z,97987.78
2022-11-07T21:28:40.445Z,97994.00
2022-11-07T21:31:12.009Z,97988.91
2022-11-07T21:33:39.017Z,97996.06
2022-11-07T21:36:09.807Z,97987.44
2022-11-07T21:38:36.273Z,97992.69
2022-11-07T21:41:06.925Z,97981.59
2022-11-07T21:43:33.602Z,97979.53
2022-11-07T21:46:13.592Z,97985.84
2022-11-07T21:48:40.393Z,97980.75
2022-11-07T21:51:07.878Z,97980.50
2022-11-07T21:53:37.745Z,97981.72
2022-11-07T21:56:05.089Z,97980.59
2022-11-07T21:58:31.570Z,97984.88
2022-11-07T22:01:02.241Z,97977.44
2022-11-07T22:03:51.559Z,97985.94
2022-11-07T22:06:19.477Z,97984.63
2022-11-07T22:08:49.401Z,97983.16
2022-11-07T22:11:16.449Z,97980.44
2022-11-07T22:13:43.174Z,97978.25
2022-11-07T22:16:17.620Z,97981.94
2022-11-07T22:18:44.509Z,97979.06
2022-11-07T22:21:12.606Z,97985.00
2022-11-07T22:23:39.562Z,97977.53
2022-11-07T22:26:07.493Z,97960.34
2022-11-07T22:28:34.008Z,97967.53
2022-11-07T22:31:03.717Z,97957.81
2022-11-07T22:33:30.288Z,97957.31
2022-11-07T22:35:59.049Z,97953.88
2022-11-07T22:38:25.586Z,97959.47
2022-11-07T22:40:52.046Z,97956.75
2022-11-07T22:43:18.781Z,97954.59
2022-11-07T22:45:45.601Z,97952.94
2022-11-07T22:48:12.029Z,97959.78
2022-11-07T22:50:38.480Z,97947.16
2022-11-07T22:53:04.974Z,97946.13
2022-11-07T22:55:34.978Z,97955.84
2022-11-07T22:58:01.450Z,97953.28
2022-11-07T23:00:27.864Z,97956.28
2022-11-07T23:02:54.340Z,97954.31
2022-11-07T23:05:20.864Z,97949.47
2022-11-07T23:07:51.321Z,97945.72
2022-11-07T23:10:17.937Z,97948.16
2022-11-07T23:12:44.632Z,97948.88
2022-11-07T23:15:11.048Z,97956.50
2022-11-07T23:17:38.238Z,97947.44
2022-11-07T23:20:05.400Z,97948.13
2022-11-07T23:22:32.585Z,97953.47
2022-11-07T23:24:59.634Z,97950.66
2022-11-07T23:27:26.213Z,97948.34
2022-11-07T23:29:52.681Z,97944.66
2022-11-07T23:32:19.095Z,97946.56
2022-11-07T23:34:45.545Z,97945.31
2022-11-07T23:37:15.044Z,97943.25
2022-11-07T23:39:44.167Z,97929.34
2022-11-07T23:42:11.093Z,97940.78
2022-11-07T23:44:56.508Z,97943.00
2022-11-07T23:47:41.714Z,97933.81
2022-11-07T23:50:27.402Z,97934.81
2022-11-07T23:52:54.433Z,97935.84
2022-11-07T23:55:39.685Z,97930.22
2022-11-07T23:58:26.627Z,97933.25
